Time;durP1;ratioP1;P1;durP2;ratioP2;P2;SDS_P1;SDS_P2;PMS_P1;PMS_P2;Temp;Humidity;BMP_temperature;BMP_pressure;BME280_temperature;BME280_humidity;BME280_pressure;Samples;Min_cycle;Max_cycle;Signal;HPM_P1;HPM_P2
2023/04/18 00:00:32;;;;;;;12.48;8.25;;;8.40;99.90;;;;;;6336086;22;20666;-67
2023/04/18 00:02:58;;;;;;;12.93;8.35;;;8.40;99.90;;;;;;6364457;22;20018;-68
2023/04/18 00:05:24;;;;;;;11.38;8.20;;;8.30;99.90;;;;;;6364621;22;20441;-68
2023/04/18 00:07:50;;;;;;;13.27;8.43;;;8.30;99.90;;;;;;6335902;22;20015;-68
2023/04/18 00:10:15;;;;;;;16.40;8.32;;;8.30;99.90;;;;;;6364709;22;20550;-68
2023/04/18 00:12:41;;;;;;;13.25;9.23;;;8.30;99.90;;;;;;6364777;22;20083;-68
2023/04/18 00:15:08;;;;;;;12.05;7.97;;;8.30;99.90;;;;;;6364051;22;20077;-68
2023/04/18 00:17:37;;;;;;;12.30;7.82;;;8.20;99.90;;;;;;6364032;22;20090;-68
2023/04/18 00:20:05;;;;;;;14.20;8.68;;;8.20;99.90;;;;;;6364238;22;20067;-68
2023/04/18 00:22:30;;;;;;;15.40;8.48;;;8.20;99.90;;;;;;6363950;22;20084;-68
2023/04/18 00:24:56;;;;;;;11.35;7.65;;;8.20;99.90;;;;;;6364393;22;20018;-67
2023/04/18 00:27:22;;;;;;;12.52;8.00;;;8.10;99.90;;;;;;6364379;22;20187;-68
2023/04/18 00:29:48;;;;;;;15.15;8.73;;;8.10;99.90;;;;;;6335930;22;20026;-67
2023/04/18 00:32:14;;;;;;;10.70;8.05;;;8.10;99.90;;;;;;6364516;22;20010;-68
2023/04/18 00:34:40;;;;;;;10.63;8.43;;;8.10;99.90;;;;;;6364584;22;20442;-68
2023/04/18 00:37:08;;;;;;;14.88;8.02;;;8.00;99.90;;;;;;6364439;22;20017;-67
2023/04/18 00:39:35;;;;;;;13.90;8.85;;;7.90;99.90;;;;;;6310058;22;20446;-67
2023/04/18 00:42:04;;;;;;;13.52;8.88;;;7.90;99.90;;;;;;6364380;22;20332;-68
2023/04/18 00:44:31;;;;;;;16.05;9.00;;;7.90;99.90;;;;;;6309891;22;20018;-68
2023/04/18 00:46:57;;;;;;;14.82;9.68;;;7.80;99.90;;;;;;6364048;22;20026;-68
2023/04/18 00:49:23;;;;;;;11.43;8.63;;;7.80;99.90;;;;;;6364132;22;20030;-68
2023/04/18 00:51:49;;;;;;;15.02;9.20;;;7.80;99.90;;;;;;6363939;22;20018;-68
2023/04/18 00:54:17;;;;;;;14.38;9.25;;;7.70;99.90;;;;;;6335766;22;20572;-68
2023/04/18 00:56:44;;;;;;;13.75;9.50;;;7.70;99.90;;;;;;6336426;22;20084;-68
2023/04/18 00:59:10;;;;;;;14.88;8.20;;;7.70;99.90;;;;;;6364105;22;20406;-67
2023/04/18 01:01:38;;;;;;;15.48;9.30;;;7.60;99.90;;;;;;6364193;22;20025;-67
2023/04/18 01:04:05;;;;;;;16.58;9.52;;;7.50;99.90;;;;;;6363968;22;20042;-68
2023/04/18 01:06:31;;;;;;;16.40;9.13;;;7.50;99.90;;;;;;6363341;22;20071;-68
2023/04/18 01:08:57;;;;;;;16.85;9.75;;;7.50;99.90;;;;;;6363641;22;20113;-68
2023/04/18 01:11:23;;;;;;;13.38;9.30;;;7.50;99.90;;;;;;6335524;22;20064;-68
2023/04/18 01:14:02;;;;;;;17.08;8.48;;;7.40;99.90;;;;;;6364220;22;20060;-68
2023/04/18 01:16:31;;;;;;;15.05;9.55;;;7.40;99.90;;;;;;6363927;22;20016;-68
2023/04/18 01:18:57;;;;;;;16.90;9.93;;;7.40;99.90;;;;;;6363381;22;20014;-68
2023/04/18 01:21:23;;;;;;;14.63;9.05;;;7.40;99.90;;;;;;6335520;22;20397;-68
2023/04/18 01:23:50;;;;;;;12.52;8.50;;;7.40;99.90;;;;;;6363834;22;20083;-67
2023/04/18 01:26:16;;;;;;;13.60;8.93;;;7.40;99.90;;;;;;6335542;22;20022;-68
2023/04/18 01:28:41;;;;;;;14.73;9.30;;;7.40;99.90;;;;;;6363906;22;20029;-67
2023/04/18 01:31:07;;;;;;;16.17;9.32;;;7.30;99.90;;;;;;6363514;22;20052;-67
2023/04/18 01:33:33;;;;;;;15.52;9.30;;;7.40;99.90;;;;;;6363735;22;20065;-67
2023/04/18 01:35:58;;;;;;;16.60;10.57;;;7.30;99.90;;;;;;6363450;22;20504;-68
2023/04/18 01:38:24;;;;;;;14.48;8.93;;;7.40;99.90;;;;;;6335331;22;20158;-68
2023/04/18 01:40:50;;;;;;;13.80;9.18;;;7.30;99.90;;;;;;6363321;22;20015;-67
2023/04/18 01:43:15;;;;;;;14.20;9.18;;;7.20;99.90;;;;;;6363520;22;20018;-68
2023/04/18 01:45:41;;;;;;;14.70;9.23;;;7.20;99.90;;;;;;6364177;22;20014;-67
2023/04/18 01:48:07;;;;;;;15.27;9.50;;;7.30;99.90;;;;;;6363331;22;20121;-68
2023/04/18 01:50:32;;;;;;;12.43;8.05;;;7.30;99.90;;;;;;6335389;22;20026;-68
2023/04/18 02:49:06;;;;;;;15.98;8.73;;;7.20;99.90;;;;;;6305868;22;20446;-68
2023/04/18 02:51:32;;;;;;;14.48;9.07;;;7.10;99.90;;;;;;6303941;22;20397;-67
2023/04/18 02:53:57;;;;;;;16.60;9.57;;;7.10;99.90;;;;;;6331927;22;20065;-68
2023/04/18 02:56:23;;;;;;;16.20;9.50;;;7.10;99.90;;;;;;6333057;22;20212;-68
2023/04/18 02:58:49;;;;;;;14.70;8.85;;;7.10;99.90;;;;;;6333568;22;20400;-67
2023/04/18 03:01:16;;;;;;;15.05;9.98;;;7.10;99.90;;;;;;6333581;22;20027;-67
2023/04/18 03:03:42;;;;;;;15.05;9.00;;;7.00;99.90;;;;;;6365340;22;20785;-67
2023/04/18 03:06:08;;;;;;;16.77;9.73;;;7.10;99.90;;;;;;6365003;22;20052;-67
2023/04/18 03:08:34;;;;;;;17.58;9.55;;;7.10;99.90;;;;;;6365058;22;20018;-67
2023/04/18 03:10:59;;;;;;;14.65;9.32;;;7.00;99.90;;;;;;6365184;22;20430;-67
2023/04/18 03:13:25;;;;;;;18.38;9.70;;;7.00;99.90;;;;;;6364555;22;20107;-67
2023/04/18 03:15:51;;;;;;;15.40;10.48;;;7.00;99.90;;;;;;6364516;22;20438;-67
2023/04/18 03:18:16;;;;;;;19.13;9.75;;;7.10;99.90;;;;;;6364417;22;20054;-67
2023/04/18 03:20:42;;;;;;;15.52;9.85;;;7.10;99.90;;;;;;6363886;22;20172;-67
2023/04/18 03:23:08;;;;;;;13.48;9.57;;;7.10;99.90;;;;;;6364731;22;20089;-67
2023/04/18 03:25:34;;;;;;;16.33;10.63;;;7.00;99.90;;;;;;6364657;22;20442;-67
2023/04/18 03:28:00;;;;;;;14.25;9.95;;;7.00;99.90;;;;;;6364487;22;20040;-67
2023/04/18 03:30:25;;;;;;;16.50;9.40;;;7.00;99.90;;;;;;6364412;22;20014;-68
2023/04/18 03:32:52;;;;;;;18.35;11.00;;;7.00;99.90;;;;;;6364800;22;20692;-68
2023/04/18 03:35:18;;;;;;;17.98;9.27;;;7.00;99.90;;;;;;6364490;22;20097;-68
2023/04/18 03:37:44;;;;;;;15.57;9.70;;;7.00;99.90;;;;;;6336286;22;20019;-67
2023/04/18 03:40:10;;;;;;;16.13;10.05;;;7.00;99.90;;;;;;6364211;22;20026;-68
2023/04/18 03:42:36;;;;;;;20.55;10.23;;;7.10;99.90;;;;;;6365183;22;20054;-67
2023/04/18 03:45:02;;;;;;;18.30;9.95;;;7.00;99.90;;;;;;6336490;22;20023;-67
2023/04/18 03:47:30;;;;;;;18.77;10.15;;;7.10;99.90;;;;;;6365016;22;20049;-67
2023/04/18 03:49:56;;;;;;;18.17;10.73;;;7.10;99.90;;;;;;6364479;22;20030;-67
2023/04/18 03:52:22;;;;;;;14.82;9.50;;;7.10;99.90;;;;;;6364767;22;20450;-67
2023/04/18 03:54:47;;;;;;;17.02;11.35;;;7.10;99.90;;;;;;6336294;22;20026;-67
2023/04/18 03:57:13;;;;;;;16.58;10.23;;;7.10;99.90;;;;;;6336549;22;20378;-67
2023/04/18 03:59:39;;;;;;;15.35;10.05;;;7.10;99.90;;;;;;6335975;22;20089;-67
2023/04/18 04:02:05;;;;;;;15.85;9.18;;;7.20;99.90;;;;;;6364651;22;20314;-68
2023/04/18 04:04:31;;;;;;;18.35;9.25;;;7.10;99.90;;;;;;6364715;22;20056;-67
2023/04/18 04:06:56;;;;;;;17.05;9.98;;;7.20;99.90;;;;;;6364456;22;20356;-68
2023/04/18 04:09:22;;;;;;;14.75;10.05;;;7.20;99.90;;;;;;6365214;22;20026;-68
2023/04/18 04:11:48;;;;;;;15.02;9.52;;;7.20;99.90;;;;;;6336351;22;20101;-67
2023/04/18 04:14:14;;;;;;;16.13;9.48;;;7.20;99.90;;;;;;6364172;22;20022;-68
2023/04/18 04:16:40;;;;;;;17.25;9.30;;;7.20;99.90;;;;;;6336415;22;20014;-67
2023/04/18 04:19:05;;;;;;;17.48;9.40;;;7.20;99.90;;;;;;6336162;22;20105;-67
2023/04/18 04:21:31;;;;;;;21.42;9.82;;;7.20;99.90;;;;;;6336532;22;20123;-68
2023/04/18 04:23:57;;;;;;;15.25;8.70;;;7.20;99.90;;;;;;6336319;22;20357;-67
2023/04/18 04:26:25;;;;;;;17.95;10.35;;;7.20;99.90;;;;;;6336137;22;20026;-67
2023/04/18 04:28:52;;;;;;;18.42;8.95;;;7.20;99.90;;;;;;6364524;22;20448;-67
2023/04/18 04:31:18;;;;;;;17.55;9.70;;;7.20;99.90;;;;;;6364253;22;20022;-67
2023/04/18 04:33:44;;;;;;;17.45;9.98;;;7.20;99.90;;;;;;6364068;22;20017;-68
2023/04/18 04:36:13;;;;;;;19.38;11.27;;;7.20;99.90;;;;;;6364239;22;20014;-67
2023/04/18 04:38:39;;;;;;;19.27;10.50;;;7.20;99.90;;;;;;6336467;22;20105;-68
2023/04/18 04:41:06;;;;;;;17.58;9.93;;;7.30;99.90;;;;;;6363964;22;20030;-67
2023/04/18 04:43:35;;;;;;;17.48;9.70;;;7.30;99.90;;;;;;6335798;22;20014;-68
2023/04/18 04:46:06;;;;;;;17.20;11.20;;;7.30;99.90;;;;;;6364039;22;20051;-67
2023/04/18 04:48:32;;;;;;;18.70;11.32;;;7.20;99.90;;;;;;6363929;22;20030;-68
2023/04/18 04:50:59;;;;;;;17.48;10.15;;;7.20;99.90;;;;;;6364808;22;20097;-67
2023/04/18 04:53:26;;;;;;;20.73;10.85;;;7.20;99.90;;;;;;6364360;22;20018;-67
2023/04/18 04:55:52;;;;;;;16.58;10.50;;;7.20;99.90;;;;;;6363581;22;20022;-67
2023/04/18 04:58:18;;;;;;;18.27;10.77;;;7.20;99.90;;;;;;6336125;22;20357;-68
2023/04/18 05:00:44;;;;;;;16.08;10.15;;;7.20;99.90;;;;;;6364825;22;20367;-68
2023/04/18 05:03:10;;;;;;;18.83;11.25;;;7.20;99.90;;;;;;6364451;22;20014;-68
2023/04/18 05:05:36;;;;;;;18.67;10.40;;;7.20;99.90;;;;;;6335669;22;20040;-67
2023/04/18 05:08:03;;;;;;;18.95;11.00;;;7.20;99.90;;;;;;6364142;22;20071;-67
2023/04/18 05:10:29;;;;;;;18.23;9.98;;;7.20;99.90;;;;;;6363629;22;20086;-68
2023/04/18 05:12:55;;;;;;;17.23;10.63;;;7.20;99.90;;;;;;6364158;22;20010;-68
2023/04/18 05:15:22;;;;;;;18.08;10.82;;;7.20;99.90;;;;;;6363914;22;20010;-67
2023/04/18 05:17:47;;;;;;;22.60;11.95;;;7.10;99.90;;;;;;6335182;22;20026;-67
2023/04/18 05:20:13;;;;;;;16.33;11.15;;;7.20;99.90;;;;;;6363386;22;20037;-68
2023/04/18 05:22:39;;;;;;;20.23;11.30;;;7.20;99.90;;;;;;6363651;22;20064;-68
2023/04/18 05:25:05;;;;;;;18.45;10.32;;;7.20;99.90;;;;;;6335220;22;20560;-68
2023/04/18 05:27:31;;;;;;;17.55;11.45;;;7.20;99.90;;;;;;6363737;22;20014;-68
2023/04/18 05:29:56;;;;;;;20.90;11.85;;;7.10;99.90;;;;;;6335830;22;20298;-68
2023/04/18 05:32:22;;;;;;;18.15;11.45;;;7.10;99.90;;;;;;6364029;22;20026;-68
2023/04/18 05:34:48;;;;;;;19.67;11.60;;;7.20;99.90;;;;;;6363489;22;20020;-68
2023/04/18 05:37:14;;;;;;;18.83;10.32;;;7.20;99.90;;;;;;6363898;22;20033;-67
2023/04/18 05:39:40;;;;;;;19.80;10.65;;;7.20;99.90;;;;;;6363334;22;20018;-68
2023/04/18 05:42:06;;;;;;;21.73;11.52;;;7.20;99.90;;;;;;6363704;22;20110;-68
2023/04/18 05:44:31;;;;;;;20.55;10.77;;;7.10;99.90;;;;;;6363389;22;20018;-68
2023/04/18 05:46:57;;;;;;;18.63;11.55;;;7.20;99.90;;;;;;6335218;22;20018;-68
2023/04/18 05:49:23;;;;;;;21.67;11.30;;;7.20;99.90;;;;;;6362981;22;20377;-68
2023/04/18 05:51:48;;;;;;;23.45;12.68;;;7.30;99.90;;;;;;6363731;22;20022;-68
2023/04/18 05:54:15;;;;;;;19.02;11.52;;;7.20;99.90;;;;;;6362947;22;20018;-67
2023/04/18 05:56:41;;;;;;;19.85;11.50;;;7.20;99.90;;;;;;6335111;22;20459;-68
2023/04/18 05:59:07;;;;;;;13.43;9.20;;;7.30;99.90;;;;;;6335106;22;20078;-68
2023/04/18 06:01:33;;;;;;;19.45;12.02;;;7.20;99.90;;;;;;6363354;22;20091;-67
2023/04/18 06:03:59;;;;;;;22.10;11.85;;;7.30;99.90;;;;;;6335270;22;20450;-68
2023/04/18 06:06:25;;;;;;;20.90;11.45;;;7.30;99.90;;;;;;6363394;22;20010;-68
2023/04/18 06:08:50;;;;;;;21.15;11.35;;;7.20;99.90;;;;;;6308677;22;20025;-68
2023/04/18 06:11:18;;;;;;;18.63;12.35;;;7.30;99.90;;;;;;6363002;22;20067;-68
2023/04/18 06:13:44;;;;;;;20.38;11.40;;;7.30;99.90;;;;;;6309042;22;20433;-68
2023/04/18 06:16:10;;;;;;;20.60;11.65;;;7.30;99.90;;;;;;6363404;22;20019;-68
2023/04/18 06:18:36;;;;;;;21.50;11.82;;;7.40;99.90;;;;;;6362914;22;20418;-68
2023/04/18 06:21:02;;;;;;;21.98;11.13;;;7.30;99.90;;;;;;6334834;22;20022;-68
2023/04/18 06:23:27;;;;;;;21.83;11.48;;;7.30;99.90;;;;;;6334658;22;20033;-68
2023/04/18 06:25:53;;;;;;;20.85;14.25;;;7.40;99.90;;;;;;6363081;22;20066;-68
2023/04/18 06:28:19;;;;;;;19.92;11.70;;;7.50;99.90;;;;;;6363524;22;20014;-67
2023/04/18 06:30:45;;;;;;;21.75;11.90;;;7.50;99.90;;;;;;6335203;22;20033;-67
2023/04/18 06:33:10;;;;;;;18.63;11.68;;;7.50;99.90;;;;;;6363399;22;20018;-67
2023/04/18 06:35:36;;;;;;;18.80;11.88;;;7.60;99.90;;;;;;6363404;22;20042;-67
2023/04/18 06:38:02;;;;;;;17.80;10.98;;;7.60;99.90;;;;;;6335720;22;20030;-67
2023/04/18 06:40:28;;;;;;;20.83;12.23;;;7.60;99.90;;;;;;6364036;22;20060;-67
2023/04/18 06:42:54;;;;;;;21.67;11.63;;;7.70;99.90;;;;;;6364883;22;20015;-67
2023/04/18 06:45:20;;;;;;;23.95;12.52;;;7.90;99.90;;;;;;6336430;22;20091;-67
2023/04/18 06:47:46;;;;;;;22.35;13.73;;;8.10;99.90;;;;;;6363935;22;20022;-67
2023/04/18 06:50:13;;;;;;;19.83;11.45;;;8.30;99.90;;;;;;6363957;22;20023;-67
2023/04/18 06:52:43;;;;;;;22.45;11.82;;;8.30;99.90;;;;;;6363981;22;20049;-67
2023/04/18 06:55:10;;;;;;;17.05;11.50;;;8.30;99.90;;;;;;6364339;22;20123;-68
2023/04/18 06:57:37;;;;;;;18.80;12.10;;;8.40;99.90;;;;;;6363973;22;20022;-67
2023/04/18 07:00:04;;;;;;;21.17;11.73;;;8.40;99.90;;;;;;6364168;22;20032;-68
2023/04/18 07:02:30;;;;;;;19.42;11.60;;;8.40;99.90;;;;;;6335675;22;20026;-67
2023/04/18 07:04:56;;;;;;;19.95;11.40;;;8.40;99.90;;;;;;6364117;22;20106;-67
2023/04/18 07:07:22;;;;;;;19.25;10.60;;;8.40;99.90;;;;;;6363903;22;20063;-68
2023/04/18 07:09:49;;;;;;;20.92;12.15;;;8.50;99.90;;;;;;6335881;22;20014;-67
2023/04/18 07:12:15;;;;;;;17.33;11.57;;;8.60;99.90;;;;;;6364033;22;20335;-68
2023/04/18 07:14:41;;;;;;;17.63;10.85;;;8.60;99.90;;;;;;6363924;22;20010;-68
2023/04/18 07:17:07;;;;;;;17.27;11.05;;;8.60;99.90;;;;;;6335597;22;20049;-67
2023/04/18 07:19:32;;;;;;;20.13;10.73;;;8.60;99.90;;;;;;6335708;22;20026;-68
2023/04/18 07:22:00;;;;;;;14.80;10.00;;;8.70;99.90;;;;;;6363787;22;20014;-67
2023/04/18 07:24:25;;;;;;;14.25;9.82;;;8.80;99.90;;;;;;6335904;22;20383;-68
2023/04/18 07:26:51;;;;;;;15.00;10.18;;;8.80;99.90;;;;;;6335801;22;20050;-68
2023/04/18 07:29:18;;;;;;;16.60;10.68;;;8.90;99.90;;;;;;6335766;22;20057;-67
2023/04/18 07:31:45;;;;;;;15.82;10.05;;;8.80;99.90;;;;;;6362182;22;20499;-67
2023/04/18 07:34:12;;;;;;;16.65;10.90;;;9.00;99.90;;;;;;6363469;22;20017;-67
2023/04/18 07:36:38;;;;;;;15.90;9.63;;;9.10;99.90;;;;;;6363288;22;20025;-68
2023/04/18 07:39:04;;;;;;;14.45;9.05;;;9.20;99.90;;;;;;6363929;22;20342;-67
2023/04/18 07:41:30;;;;;;;16.85;9.25;;;9.30;99.90;;;;;;6363952;22;20098;-67
2023/04/18 07:43:56;;;;;;;16.55;9.20;;;9.30;99.90;;;;;;6365808;22;20046;-67
2023/04/18 07:46:21;;;;;;;12.93;8.52;;;9.30;99.90;;;;;;6337349;22;20083;-67
2023/04/18 07:48:47;;;;;;;13.63;9.13;;;9.20;99.90;;;;;;6365280;22;20018;-68
2023/04/18 07:51:13;;;;;;;16.67;10.25;;;9.20;99.90;;;;;;6365657;22;20022;-68
2023/04/18 07:53:42;;;;;;;16.83;9.75;;;9.30;99.90;;;;;;6337239;22;20072;-67
2023/04/18 07:56:08;;;;;;;16.98;9.75;;;9.40;99.90;;;;;;6365415;22;20018;-67
2023/04/18 07:58:34;;;;;;;13.68;9.60;;;9.50;99.90;;;;;;6337899;22;20093;-68
2023/04/18 08:01:01;;;;;;;15.60;10.15;;;9.40;99.90;;;;;;6366056;22;20042;-67
2023/04/18 08:03:26;;;;;;;14.30;9.10;;;9.30;99.90;;;;;;6337636;22;20063;-67
2023/04/18 08:05:52;;;;;;;13.48;8.85;;;9.40;99.90;;;;;;6366013;22;20077;-67
2023/04/18 08:08:18;;;;;;;16.10;9.85;;;9.40;99.90;;;;;;6362194;22;20353;-68
2023/04/18 08:10:44;;;;;;;12.88;8.77;;;9.40;99.90;;;;;;6364926;22;20083;-67
2023/04/18 08:13:11;;;;;;;14.32;9.20;;;9.40;99.90;;;;;;6336636;22;20109;-67
2023/04/18 08:15:38;;;;;;;19.63;9.77;;;9.30;99.90;;;;;;6363131;22;20018;-65
2023/04/18 08:18:04;;;;;;;20.05;9.90;;;9.30;99.90;;;;;;6364987;22;20018;-67
2023/04/18 08:20:30;;;;;;;18.40;9.63;;;9.40;99.90;;;;;;6336155;22;20026;-67
2023/04/18 08:22:55;;;;;;;14.18;9.48;;;9.30;99.90;;;;;;6336143;22;20089;-66
2023/04/18 08:25:21;;;;;;;17.73;11.35;;;9.30;99.90;;;;;;6364946;22;20040;-67
2023/04/18 08:27:47;;;;;;;18.65;10.30;;;9.40;99.90;;;;;;6336754;22;20022;-67
2023/04/18 08:30:13;;;;;;;16.88;9.88;;;9.40;99.90;;;;;;6364933;22;20034;-67
2023/04/18 08:32:39;;;;;;;16.70;9.18;;;9.40;99.90;;;;;;6364691;22;20033;-67
2023/04/18 08:35:05;;;;;;;15.95;9.75;;;9.40;99.90;;;;;;6364131;22;20454;-67
2023/04/18 08:37:34;;;;;;;17.45;10.18;;;9.40;99.90;;;;;;6335879;22;20052;-67
2023/04/18 08:40:00;;;;;;;16.63;10.00;;;9.50;99.90;;;;;;6336433;22;20060;-67
2023/04/18 08:42:26;;;;;;;16.00;10.40;;;9.60;99.90;;;;;;6364518;22;20015;-67
2023/04/18 08:44:52;;;;;;;17.25;10.35;;;9.50;99.90;;;;;;6364596;22;20010;-67
2023/04/18 08:47:19;;;;;;;15.13;9.60;;;9.60;99.90;;;;;;6335972;22;20033;-68
2023/04/18 08:49:45;;;;;;;17.15;10.38;;;9.60;99.90;;;;;;6364235;22;20029;-67
2023/04/18 08:52:18;;;;;;;17.67;10.45;;;9.70;99.90;;;;;;6336725;22;20318;-68
2023/04/18 08:54:45;;;;;;;18.10;10.60;;;9.80;99.90;;;;;;6364833;22;20049;-67
2023/04/18 08:57:17;;;;;;;14.82;10.73;;;9.70;99.90;;;;;;6336628;22;20014;-67
2023/04/18 08:59:44;;;;;;;17.70;9.65;;;9.80;99.90;;;;;;6364412;22;20026;-68
2023/04/18 09:02:11;;;;;;;17.55;10.40;;;9.80;99.90;;;;;;6364030;22;20019;-67
2023/04/18 09:04:38;;;;;;;18.05;10.95;;;9.80;99.90;;;;;;6334396;22;20045;-68
2023/04/18 09:07:11;;;;;;;17.55;10.32;;;9.90;99.90;;;;;;6336026;22;20048;-68
2023/04/18 09:09:40;;;;;;;16.48;9.70;;;9.90;99.90;;;;;;6364583;22;20018;-67
2023/04/18 09:12:07;;;;;;;19.02;11.13;;;10.10;99.90;;;;;;6364444;22;20022;-68
2023/04/18 09:14:41;;;;;;;15.70;10.27;;;10.10;99.90;;;;;;6335711;22;20065;-68
2023/04/18 09:17:08;;;;;;;19.17;11.48;;;10.20;99.90;;;;;;6363916;22;20807;-68
2023/04/18 09:19:33;;;;;;;17.23;11.55;;;10.20;99.90;;;;;;6364261;22;20018;-68
2023/04/18 09:22:03;;;;;;;19.83;10.75;;;10.30;99.90;;;;;;6364104;22;20346;-67
2023/04/18 09:24:30;;;;;;;16.98;11.07;;;10.30;99.90;;;;;;6363159;22;20050;-67
2023/04/18 09:26:58;;;;;;;21.75;11.75;;;10.40;99.90;;;;;;6335255;22;20019;-68
2023/04/18 09:29:45;;;;;;;18.45;11.20;;;10.40;99.90;;;;;;6336460;22;20802;-67
2023/04/18 09:32:32;;;;;;;17.00;9.85;;;10.50;99.90;;;;;;6363843;22;20050;-68
2023/04/18 09:35:02;;;;;;;19.02;11.07;;;10.60;99.90;;;;;;6336060;22;20018;-67
2023/04/18 09:37:28;;;;;;;18.35;11.10;;;10.60;99.90;;;;;;6363149;22;20097;-67
2023/04/18 09:39:54;;;;;;;19.50;11.40;;;10.60;99.90;;;;;;6363990;22;20053;-67
2023/04/18 09:42:21;;;;;;;17.90;10.90;;;10.60;99.90;;;;;;6335220;22;20387;-67
2023/04/18 09:45:07;;;;;;;14.88;10.75;;;10.70;99.90;;;;;;6362952;22;20053;-67
2023/04/18 09:47:34;;;;;;;21.10;11.68;;;10.80;99.90;;;;;;6363393;22;20033;-67
2023/04/18 09:50:08;;;;;;;19.27;10.57;;;10.70;99.90;;;;;;6335308;22;20026;-67
2023/04/18 09:52:38;;;;;;;13.90;9.75;;;10.60;99.90;;;;;;6364048;22;20018;-67
2023/04/18 09:55:06;;;;;;;15.75;10.05;;;10.80;99.90;;;;;;6335921;22;20074;-67
2023/04/18 09:57:34;;;;;;;17.88;11.30;;;10.90;99.90;;;;;;6363996;22;20026;-67
2023/04/18 10:00:16;;;;;;;19.70;9.82;;;11.00;99.90;;;;;;6335307;22;20350;-67
2023/04/18 10:02:53;;;;;;;17.03;10.13;;;10.90;99.90;;;;;;6335350;22;20025;-67
2023/04/18 10:05:22;;;;;;;17.48;9.73;;;10.90;99.90;;;;;;6363925;22;20041;-67
2023/04/18 10:07:49;;;;;;;16.25;10.85;;;11.00;99.90;;;;;;6363987;22;20056;-67
2023/04/18 10:10:15;;;;;;;18.35;11.25;;;11.00;99.90;;;;;;6363212;22;20014;-66
2023/04/18 10:12:42;;;;;;;15.85;8.60;;;11.00;99.90;;;;;;6363952;22;20010;-68
2023/04/18 10:15:10;;;;;;;13.35;8.77;;;11.10;99.90;;;;;;6363447;22;20108;-65
2023/04/18 10:17:59;;;;;;;16.80;10.00;;;11.00;99.90;;;;;;6363702;22;20089;-66
2023/04/18 10:20:27;;;;;;;15.43;9.23;;;10.90;99.90;;;;;;6336002;22;20018;-64
2023/04/18 10:22:54;;;;;;;13.02;8.63;;;11.10;99.90;;;;;;6364230;22;20025;-64
2023/04/18 10:25:38;;;;;;;12.23;7.97;;;11.20;99.90;;;;;;6335521;22;20018;-65
2023/04/18 10:28:05;;;;;;;21.08;9.13;;;11.40;99.90;;;;;;6363753;22;20425;-65
2023/04/18 10:30:40;;;;;;;16.48;9.95;;;11.40;99.90;;;;;;6364054;22;20010;-65
2023/04/18 10:33:26;;;;;;;17.20;9.95;;;11.40;99.90;;;;;;6363820;22;20056;-65
2023/04/18 10:36:13;;;;;;;17.60;10.75;;;11.50;99.90;;;;;;6364146;22;20063;-67
2023/04/18 10:38:45;;;;;;;17.23;11.10;;;11.60;99.90;;;;;;6364282;22;20042;-66
2023/04/18 10:41:30;;;;;;;16.08;10.35;;;11.50;99.90;;;;;;6336080;22;20025;-66
2023/04/18 10:44:08;;;;;;;18.30;10.82;;;11.50;99.90;;;;;;6364120;22;20018;-67
2023/04/18 10:46:35;;;;;;;17.20;11.10;;;11.60;99.90;;;;;;6364019;22;20018;-67
2023/04/18 10:49:22;;;;;;;16.75;10.30;;;11.50;99.90;;;;;;6362729;22;20014;-67
2023/04/18 10:51:58;;;;;;;14.98;10.43;;;11.60;99.90;;;;;;6363846;22;20027;-67
2023/04/18 10:54:27;;;;;;;18.48;11.45;;;11.70;99.90;;;;;;6363955;22;20032;-67
2023/04/18 10:56:57;;;;;;;17.98;11.48;;;11.70;99.90;;;;;;6363760;22;20027;-67
2023/04/18 10:59:25;;;;;;;14.63;9.40;;;11.60;99.90;;;;;;6363604;22;20018;-67
2023/04/18 11:02:22;;;;;;;17.05;10.10;;;11.70;99.90;;;;;;6335560;22;20014;-67
2023/04/18 11:04:53;;;;;;;15.63;10.18;;;11.70;99.90;;;;;;6363552;22;20018;-67
2023/04/18 11:07:19;;;;;;;18.38;11.70;;;11.80;99.90;;;;;;6363447;22;20022;-67
2023/04/18 11:09:56;;;;;;;17.70;10.25;;;11.80;99.90;;;;;;6363605;22;20036;-67
2023/04/18 11:12:22;;;;;;;11.18;8.20;;;11.80;99.90;;;;;;6335836;22;20022;-67
2023/04/18 11:14:52;;;;;;;12.75;8.32;;;11.80;99.90;;;;;;6363302;22;20078;-68
2023/04/18 11:17:26;;;;;;;18.85;10.65;;;11.80;99.90;;;;;;6365134;22;20033;-68
2023/04/18 11:20:11;;;;;;;15.63;11.25;;;11.80;99.90;;;;;;6336744;22;20465;-68
2023/04/18 11:22:53;;;;;;;13.98;10.52;;;12.00;99.90;;;;;;6337615;22;20094;-68
2023/04/18 11:25:23;;;;;;;12.57;9.40;;;12.00;99.90;;;;;;6366041;22;20018;-68
2023/04/18 11:27:54;;;;;;;16.38;9.82;;;12.00;99.90;;;;;;6365923;22;20252;-67
2023/04/18 11:30:20;;;;;;;14.93;10.38;;;12.10;99.90;;;;;;6366585;22;20113;-65
2023/04/18 11:32:46;;;;;;;16.88;10.48;;;12.10;99.90;;;;;;6366593;22;20006;-65
2023/04/18 11:35:14;;;;;;;13.80;10.15;;;12.30;99.90;;;;;;6337908;22;20010;-64
2023/04/18 11:37:40;;;;;;;16.05;10.73;;;12.40;99.90;;;;;;6366101;22;20018;-64
2023/04/18 11:40:10;;;;;;;14.48;9.73;;;12.60;99.90;;;;;;6337476;22;20031;-64
2023/04/18 11:42:38;;;;;;;15.60;10.35;;;12.60;99.90;;;;;;6365540;22;20106;-64
2023/04/18 11:45:08;;;;;;;15.32;10.52;;;12.80;99.90;;;;;;6311538;22;20362;-65
2023/04/18 11:47:34;;;;;;;15.52;10.82;;;12.90;99.90;;;;;;6365889;22;20018;-64
2023/04/18 11:50:03;;;;;;;15.50;10.50;;;12.90;99.90;;;;;;6364381;22;20022;-63
2023/04/18 11:52:30;;;;;;;14.57;10.02;;;13.00;99.90;;;;;;6364989;22;20025;-64
2023/04/18 11:55:11;;;;;;;13.15;8.95;;;13.00;99.90;;;;;;6365216;22;20015;-63
2023/04/18 11:57:37;;;;;;;13.88;8.70;;;13.00;99.90;;;;;;6337525;22;20026;-64
2023/04/18 12:00:05;;;;;;;15.15;9.70;;;12.90;99.90;;;;;;6337905;22;20018;-66
2023/04/18 12:02:44;;;;;;;14.52;9.95;;;12.80;99.90;;;;;;6338206;22;20049;-64
2023/04/18 12:05:10;;;;;;;15.95;9.63;;;12.80;99.90;;;;;;6366257;22;20023;-65
2023/04/18 12:07:45;;;;;;;13.35;9.18;;;12.90;99.90;;;;;;6365512;22;20022;-64
2023/04/18 12:10:19;;;;;;;13.50;9.52;;;12.80;99.90;;;;;;6365910;22;20044;-65
2023/04/18 12:12:53;;;;;;;12.27;9.38;;;13.00;99.90;;;;;;6366091;22;20022;-64
2023/04/18 12:15:22;;;;;;;12.23;9.68;;;13.10;99.90;;;;;;6366316;22;20014;-66
2023/04/18 12:17:51;;;;;;;17.27;9.63;;;13.10;99.90;;;;;;6365372;22;20046;-64
2023/04/18 12:20:17;;;;;;;12.95;9.75;;;13.10;99.90;;;;;;6364856;22;20528;-65
2023/04/18 12:22:44;;;;;;;13.25;9.43;;;13.10;99.90;;;;;;6336588;22;20022;-65
2023/04/18 12:25:21;;;;;;;12.50;9.27;;;13.10;99.90;;;;;;6364764;22;20011;-64
2023/04/18 12:27:56;;;;;;;15.32;10.05;;;13.10;99.90;;;;;;6364362;22;20018;-64
2023/04/18 12:30:32;;;;;;;14.02;9.90;;;13.20;99.90;;;;;;6364195;22;20022;-64
2023/04/18 12:33:00;;;;;;;14.05;9.18;;;13.20;99.90;;;;;;6363758;22;20025;-64
2023/04/18 12:35:27;;;;;;;13.07;10.32;;;13.30;99.90;;;;;;6335548;22;20026;-63
2023/04/18 12:37:55;;;;;;;15.35;9.18;;;13.30;99.90;;;;;;6364464;22;20083;-64
2023/04/18 12:40:21;;;;;;;13.88;9.30;;;13.40;99.90;;;;;;6363919;22;20025;-65
2023/04/18 12:42:49;;;;;;;12.63;9.68;;;13.40;99.90;;;;;;6364309;22;20022;-65
2023/04/18 12:45:16;;;;;;;12.63;9.05;;;13.50;99.90;;;;;;6364353;22;20071;-65
2023/04/18 12:47:44;;;;;;;14.95;9.90;;;13.60;99.90;;;;;;6364135;22;20029;-64
2023/04/18 12:50:22;;;;;;;13.43;9.75;;;13.50;99.90;;;;;;6363366;22;20055;-65
2023/04/18 12:52:48;;;;;;;13.38;9.50;;;13.60;99.90;;;;;;6364597;22;20083;-64
2023/04/18 12:55:14;;;;;;;15.95;10.57;;;13.70;99.90;;;;;;6363754;22;20473;-64
2023/04/18 12:57:41;;;;;;;16.60;10.50;;;13.70;99.90;;;;;;6364544;22;20014;-64
2023/04/18 13:00:12;;;;;;;20.00;10.73;;;13.70;99.90;;;;;;6364292;22;20413;-65
2023/04/18 13:02:42;;;;;;;12.60;10.23;;;13.60;99.90;;;;;;6364429;22;20057;-64
2023/04/18 13:05:13;;;;;;;15.82;9.63;;;13.60;99.90;;;;;;6335610;22;20022;-64
2023/04/18 13:07:41;;;;;;;14.88;9.43;;;13.70;99.90;;;;;;6364016;22;20053;-65
2023/04/18 13:10:11;;;;;;;13.88;9.40;;;13.50;99.90;;;;;;6360780;22;20489;-64
2023/04/18 13:12:38;;;;;;;12.57;9.20;;;13.50;99.90;;;;;;6362559;22;20010;-64
2023/04/18 13:15:05;;;;;;;11.60;9.43;;;13.70;99.90;;;;;;6362308;22;20021;-64
2023/04/18 13:17:32;;;;;;;12.02;9.32;;;13.80;99.90;;;;;;6362409;22;20453;-64
2023/04/18 13:19:59;;;;;;;11.55;8.40;;;13.80;99.90;;;;;;6363763;22;20084;-64
2023/04/18 13:22:27;;;;;;;13.63;8.50;;;13.70;99.90;;;;;;6335032;22;20076;-64
2023/04/18 13:24:53;;;;;;;15.10;8.27;;;13.80;99.90;;;;;;6335233;22;20022;-64
2023/04/18 13:27:19;;;;;;;11.43;8.02;;;13.80;99.90;;;;;;6364110;22;20015;-64
2023/04/18 13:29:45;;;;;;;9.23;7.05;;;13.90;99.90;;;;;;6335318;22;20018;-64
2023/04/18 13:32:11;;;;;;;9.77;6.97;;;14.00;99.90;;;;;;6335600;22;20026;-64
2023/04/18 13:34:42;;;;;;;7.18;5.88;;;13.80;99.90;;;;;;6363479;22;20115;-65
2023/04/18 13:37:08;;;;;;;7.70;5.55;;;14.00;99.90;;;;;;6363973;22;20423;-64